Time;durP1;ratioP1;P1;durP2;ratioP2;P2;SDS_P1;SDS_P2;PMS_P1;PMS_P2;Temp;Humidity;BMP_temperature;BMP_pressure;BME280_temperature;BME280_humidity;BME280_pressure;Samples;Min_cycle;Max_cycle;Signal;HPM_P1;HPM_P2
2021/07/12 00:00:58;;;;;;;38.10;19.77;;;18.40;91.30;;;;;;5089685;28;20195;-89
2021/07/12 00:03:24;;;;;;;54.30;18.95;;;18.40;91.40;;;;;;5074077;28;20168;-89
2021/07/12 00:05:50;;;;;;;58.60;20.27;;;18.40;91.30;;;;;;5073800;28;20174;-89
2021/07/12 00:08:15;;;;;;;41.95;21.48;;;18.40;91.40;;;;;;5089480;28;20174;-89
2021/07/12 00:10:41;;;;;;;39.05;21.30;;;18.40;91.50;;;;;;5089308;28;20215;-88
2021/07/12 00:13:07;;;;;;;42.65;22.48;;;18.30;91.50;;;;;;5073864;28;20163;-89
2021/07/12 00:15:33;;;;;;;51.60;22.67;;;18.40;91.70;;;;;;5089434;28;20186;-89
2021/07/12 00:17:59;;;;;;;44.72;23.38;;;18.30;91.90;;;;;;5089323;28;20175;-89
2021/07/12 00:20:25;;;;;;;36.85;23.02;;;18.40;92.10;;;;;;5089386;28;20199;-89
2021/07/12 00:22:53;;;;;;;41.38;23.55;;;18.40;92.10;;;;;;5089325;28;20176;-89
2021/07/12 00:25:20;;;;;;;24.30;20.40;;;18.50;92.10;;;;;;5089590;28;20179;-89
2021/07/12 00:27:46;;;;;;;32.80;20.52;;;18.50;92.00;;;;;;5089420;28;20179;-89
2021/07/12 00:30:16;;;;;;;26.35;20.30;;;18.60;91.80;;;;;;5089954;28;20301;-89
2021/07/12 00:32:43;;;;;;;30.20;19.67;;;18.70;91.70;;;;;;5089284;28;20631;-89
2021/07/12 00:35:11;;;;;;;32.85;17.83;;;18.70;91.60;;;;;;5089101;28;20313;-89
2021/07/12 00:37:37;;;;;;;29.27;18.02;;;18.70;91.50;;;;;;5090044;28;20229;-89
2021/07/12 00:40:07;;;;;;;22.27;18.25;;;18.70;91.20;;;;;;5089183;28;20194;-90
2021/07/12 00:42:33;;;;;;;26.42;16.65;;;18.70;91.20;;;;;;5089169;28;20171;-89
2021/07/12 00:44:59;;;;;;;23.65;16.30;;;18.70;91.10;;;;;;5089294;28;20664;-89
2021/07/12 00:47:25;;;;;;;20.05;15.38;;;18.80;90.90;;;;;;5089111;28;20171;-89
2021/07/12 00:49:50;;;;;;;23.25;16.48;;;18.80;90.70;;;;;;5073641;28;20207;-89
2021/07/12 00:52:16;;;;;;;16.00;14.38;;;18.80;90.60;;;;;;5089095;28;20198;-89
2021/07/12 00:54:42;;;;;;;22.30;14.23;;;18.90;90.50;;;;;;5089254;28;20536;-89
2021/07/12 00:57:08;;;;;;;22.70;14.90;;;18.80;90.40;;;;;;5089099;28;20220;-90
2021/07/12 00:59:35;;;;;;;21.30;14.18;;;18.90;90.40;;;;;;5089622;28;20199;-90
2021/07/12 01:02:02;;;;;;;21.40;14.38;;;18.80;90.30;;;;;;5088950;28;20179;-90
2021/07/12 01:04:28;;;;;;;18.85;13.05;;;18.80;90.30;;;;;;5089076;28;20168;-89
2021/07/12 01:06:54;;;;;;;22.48;13.38;;;18.80;90.00;;;;;;5073304;28;20171;-89
2021/07/12 01:09:20;;;;;;;25.77;15.32;;;18.80;90.00;;;;;;5088628;28;20228;-89
2021/07/12 01:12:04;;;;;;;19.80;12.30;;;18.80;90.00;;;;;;5088961;28;20176;-90
2021/07/12 01:15:05;;;;;;;16.92;12.38;;;18.80;89.90;;;;;;5088871;28;20175;-89
2021/07/12 01:17:52;;;;;;;14.02;12.32;;;18.80;89.80;;;;;;5072008;28;20175;-90
2021/07/12 01:20:57;;;;;;;12.65;11.18;;;18.80;89.70;;;;;;5088952;28;20225;-90
2021/07/12 01:23:42;;;;;;;16.75;10.70;;;18.80;89.60;;;;;;5088844;28;20179;-89
2021/07/12 01:26:42;;;;;;;16.83;11.82;;;18.80;89.50;;;;;;5088893;28;20202;-89
2021/07/12 01:29:26;;;;;;;16.92;10.90;;;18.70;89.50;;;;;;5088597;28;20199;-89
2021/07/12 01:32:17;;;;;;;17.85;11.82;;;18.80;89.50;;;;;;5088869;28;20727;-89
2021/07/12 01:34:57;;;;;;;16.05;11.57;;;18.80;89.40;;;;;;5089144;28;20210;-89
2021/07/12 01:37:58;;;;;;;18.00;11.32;;;18.70;89.30;;;;;;5088595;28;20615;-89
2021/07/12 01:40:53;;;;;;;19.30;12.05;;;18.70;89.30;;;;;;4994727;28;20224;-90
2021/07/12 01:43:27;;;;;;;23.42;11.95;;;18.70;89.20;;;;;;5045086;28;20187;-89
2021/07/12 01:46:21;;;;;;;21.50;12.05;;;18.50;89.40;;;;;;5090597;28;20167;-89
2021/07/12 01:49:41;;;;;;;21.27;12.30;;;18.60;89.30;;;;;;5091956;28;20203;-89
2021/07/12 01:52:15;;;;;;;23.02;11.90;;;18.40;89.50;;;;;;4998361;28;20174;-89
2021/07/12 01:55:03;;;;;;;27.05;12.15;;;18.40;89.60;;;;;;5067055;28;20186;-89
2021/07/12 01:57:34;;;;;;;23.05;12.10;;;18.30;89.60;;;;;;5092172;28;20259;-89
2021/07/12 02:00:11;;;;;;;17.50;12.15;;;18.20;89.80;;;;;;5091909;28;20706;-89
2021/07/12 02:02:41;;;;;;;18.63;11.60;;;18.20;89.80;;;;;;5092010;28;20222;-89
2021/07/12 02:05:16;;;;;;;16.45;12.18;;;18.20;89.70;;;;;;5092481;28;20259;-89
2021/07/12 02:07:43;;;;;;;15.77;11.85;;;18.20;89.80;;;;;;5092941;28;20182;-89
2021/07/12 02:10:10;;;;;;;17.92;12.80;;;18.10;89.70;;;;;;5075869;28;20211;-89
2021/07/12 02:12:37;;;;;;;21.77;12.38;;;18.00;89.90;;;;;;5091629;28;20179;-89
2021/07/12 02:15:05;;;;;;;26.83;12.05;;;18.00;89.80;;;;;;5091907;28;20175;-89
2021/07/12 02:17:32;;;;;;;16.40;11.80;;;18.00;89.60;;;;;;5091722;28;20179;-89
2021/07/12 02:20:04;;;;;;;20.90;11.60;;;18.00;89.60;;;;;;5091613;28;20199;-89
2021/07/12 02:22:33;;;;;;;18.30;10.85;;;18.00;89.50;;;;;;5091559;28;20214;-89
2021/07/12 02:25:00;;;;;;;14.52;11.25;;;17.90;89.50;;;;;;5091331;28;20175;-89
2021/07/12 02:27:27;;;;;;;25.02;11.45;;;17.90;89.50;;;;;;5091490;28;20218;-89
2021/07/12 02:29:55;;;;;;;22.08;12.40;;;17.90;89.60;;;;;;5091534;28;20717;-89
2021/07/12 02:32:20;;;;;;;24.40;11.25;;;17.80;89.60;;;;;;5075664;28;20572;-90
2021/07/12 02:34:48;;;;;;;19.75;11.70;;;17.80;89.60;;;;;;5091280;28;20164;-89
2021/07/12 02:37:15;;;;;;;18.92;11.35;;;17.80;89.60;;;;;;5091288;28;20191;-90
2021/07/12 02:39:46;;;;;;;13.68;10.93;;;17.80;89.70;;;;;;5075810;28;20221;-89
2021/07/12 02:42:13;;;;;;;23.33;11.60;;;17.80;89.70;;;;;;5091143;28;20168;-89
2021/07/12 02:44:43;;;;;;;22.90;13.05;;;17.70;89.80;;;;;;5091275;28;20175;-89
2021/07/12 02:47:10;;;;;;;35.42;12.90;;;17.70;89.90;;;;;;5075799;28;20164;-89
2021/07/12 02:49:36;;;;;;;21.45;11.65;;;17.70;89.90;;;;;;5090854;28;20215;-89
2021/07/12 02:52:17;;;;;;;23.23;11.48;;;17.70;89.90;;;;;;5074226;28;20177;-89
2021/07/12 02:54:45;;;;;;;22.40;12.27;;;17.60;90.00;;;;;;5091055;28;20250;-89
2021/07/12 02:57:11;;;;;;;22.15;12.07;;;17.60;89.90;;;;;;5074038;28;20202;-89
2021/07/12 02:59:37;;;;;;;25.10;12.48;;;17.70;89.90;;;;;;5090985;28;20286;-89
2021/07/12 03:02:03;;;;;;;20.67;11.73;;;17.60;89.90;;;;;;5075387;28;20195;-89
2021/07/12 03:04:29;;;;;;;24.00;12.18;;;17.60;89.90;;;;;;5074148;28;20229;-89
2021/07/12 03:06:58;;;;;;;17.40;11.82;;;17.60;90.00;;;;;;5075052;28;20176;-89
2021/07/12 03:09:30;;;;;;;19.70;12.93;;;17.60;89.80;;;;;;5090681;28;20215;-89
2021/07/12 03:12:29;;;;;;;19.40;11.48;;;17.60;89.70;;;;;;5074937;28;20171;-89
2021/07/12 03:15:11;;;;;;;22.20;12.15;;;17.70;89.70;;;;;;5073968;28;20179;-89
2021/07/12 03:17:47;;;;;;;17.58;12.00;;;17.70;89.60;;;;;;5090475;28;20167;-89
2021/07/12 03:20:13;;;;;;;20.02;12.30;;;17.60;89.60;;;;;;5090740;28;20194;-89
2021/07/12 03:22:40;;;;;;;23.77;12.35;;;17.60;89.60;;;;;;5074733;28;20258;-90
2021/07/12 03:25:10;;;;;;;18.15;11.23;;;17.60;89.60;;;;;;5090487;28;20654;-90
2021/07/12 03:27:37;;;;;;;18.88;11.50;;;17.60;89.60;;;;;;5091280;28;20179;-90
2021/07/12 03:30:06;;;;;;;14.57;10.93;;;17.60;89.60;;;;;;5090458;28;20244;-90
2021/07/12 03:32:33;;;;;;;19.33;11.13;;;17.60;89.50;;;;;;5073232;28;20247;-89
2021/07/12 03:35:00;;;;;;;19.70;11.38;;;17.60;89.40;;;;;;5090165;28;20175;-89
2021/07/12 03:37:26;;;;;;;17.20;11.38;;;17.70;89.40;;;;;;5090862;28;20320;-89
2021/07/12 03:39:52;;;;;;;12.45;10.30;;;17.70;89.20;;;;;;5090023;28;20202;-89
2021/07/12 03:42:20;;;;;;;16.55;10.18;;;17.70;89.10;;;;;;5090024;28;20176;-90
2021/07/12 03:44:46;;;;;;;14.07;9.35;;;17.80;88.90;;;;;;5089993;28;20180;-89
2021/07/12 03:47:29;;;;;;;15.35;9.63;;;17.80;88.70;;;;;;5073487;28;20198;-89
2021/07/12 03:50:22;;;;;;;21.80;10.13;;;17.90;88.50;;;;;;5089829;28;20217;-89
2021/07/12 03:52:52;;;;;;;18.02;9.50;;;18.00;88.00;;;;;;5070509;28;20183;-89
2021/07/12 03:55:24;;;;;;;12.02;9.68;;;18.10;87.60;;;;;;5090556;28;20579;-90
2021/07/12 03:57:50;;;;;;;17.60;9.75;;;18.20;87.30;;;;;;5074100;28;20673;-89
2021/07/12 04:00:19;;;;;;;19.42;10.75;;;18.30;87.20;;;;;;5089793;28;20199;-89
2021/07/12 04:02:46;;;;;;;14.52;10.43;;;18.20;87.40;;;;;;5089764;28;20266;-89
2021/07/12 04:05:13;;;;;;;21.08;11.05;;;18.10;87.50;;;;;;5073939;28;20179;-89
2021/07/12 04:07:40;;;;;;;18.05;11.48;;;18.10;87.80;;;;;;5073653;28;20178;-89
2021/07/12 04:10:09;;;;;;;14.88;10.73;;;18.00;87.80;;;;;;5089338;28;20691;-89
2021/07/12 04:12:36;;;;;;;16.42;10.45;;;18.00;87.90;;;;;;5072787;28;20659;-89
2021/07/12 04:15:03;;;;;;;18.40;11.23;;;18.10;88.00;;;;;;5089604;28;20198;-89
2021/07/12 04:17:28;;;;;;;19.95;10.90;;;18.00;88.00;;;;;;5089689;28;20646;-89
2021/07/12 04:19:56;;;;;;;18.75;11.15;;;18.00;88.20;;;;;;5089312;28;20221;-89
2021/07/12 04:22:23;;;;;;;16.35;11.10;;;18.00;88.20;;;;;;5073700;28;20174;-89
2021/07/12 04:24:49;;;;;;;18.15;10.95;;;18.00;88.70;;;;;;5089335;28;20171;-89
2021/07/12 04:27:15;;;;;;;13.40;11.32;;;18.00;88.80;;;;;;5089216;28;20674;-89
2021/07/12 04:29:41;;;;;;;15.55;11.50;;;17.90;89.00;;;;;;5089049;28;20609;-89
2021/07/12 04:32:07;;;;;;;14.88;11.90;;;18.00;89.10;;;;;;5089177;28;20185;-89
2021/07/12 04:34:33;;;;;;;15.77;10.98;;;18.00;88.90;;;;;;5089591;28;20240;-89
2021/07/12 04:36:59;;;;;;;12.65;11.02;;;18.00;89.00;;;;;;5089181;28;20643;-89
2021/07/12 04:39:24;;;;;;;15.82;11.38;;;18.00;89.20;;;;;;5089197;28;20195;-89
2021/07/12 04:41:50;;;;;;;15.52;11.55;;;17.90;89.20;;;;;;5073557;28;20179;-89
2021/07/12 04:44:16;;;;;;;16.50;11.90;;;18.00;89.40;;;;;;5089245;28;20670;-89
2021/07/12 04:46:41;;;;;;;14.80;11.75;;;18.00;89.30;;;;;;5088966;28;20180;-89
2021/07/12 04:49:07;;;;;;;15.90;12.25;;;18.00;89.40;;;;;;5089213;28;20203;-89
2021/07/12 04:51:33;;;;;;;13.40;11.40;;;18.10;89.20;;;;;;5089049;28;20198;-89
2021/07/12 04:53:59;;;;;;;22.27;10.98;;;18.10;89.40;;;;;;5089303;28;20616;-89
2021/07/12 04:56:25;;;;;;;16.05;11.27;;;18.10;89.20;;;;;;5073310;28;20168;-89
2021/07/12 04:58:51;;;;;;;15.27;11.40;;;18.20;89.10;;;;;;5089231;28;20557;-89
2021/07/12 05:01:17;;;;;;;13.98;11.68;;;18.20;89.10;;;;;;5089095;28;20199;-89
2021/07/12 05:03:43;;;;;;;13.18;10.90;;;18.20;89.10;;;;;;5073355;28;20175;-89
2021/07/12 05:06:09;;;;;;;17.10;10.85;;;18.30;88.90;;;;;;5088861;28;20220;-89
2021/07/12 05:08:36;;;;;;;14.35;10.93;;;18.30;88.90;;;;;;5073035;28;20647;-89
2021/07/12 05:11:02;;;;;;;13.52;10.80;;;18.40;88.80;;;;;;5174335;22;20747;-85
2021/07/12 05:13:29;;;;;;;13.40;10.00;;;18.40;88.50;;;;;;5072778;28;20171;-85
2021/07/12 05:15:55;;;;;;;13.88;10.55;;;18.50;88.50;;;;;;5072778;28;20168;-85
2021/07/12 05:18:21;;;;;;;15.18;10.10;;;18.50;88.10;;;;;;5088258;28;20274;-85
2021/07/12 05:20:47;;;;;;;12.98;10.55;;;18.60;88.20;;;;;;5073248;28;20230;-86
2021/07/12 05:23:13;;;;;;;16.25;11.10;;;18.60;88.30;;;;;;5092159;28;20205;-86
2021/07/12 05:25:38;;;;;;;11.50;10.18;;;18.70;88.50;;;;;;5076491;28;20175;-86
2021/07/12 05:28:05;;;;;;;12.48;9.98;;;18.80;88.20;;;;;;5076795;28;20171;-85
2021/07/12 05:30:31;;;;;;;12.48;9.98;;;18.80;87.50;;;;;;5076482;28;20687;-86
2021/07/12 05:32:57;;;;;;;11.88;9.30;;;18.90;87.40;;;;;;5076406;28;20171;-85
2021/07/12 05:35:23;;;;;;;16.27;9.90;;;19.00;87.60;;;;;;5092278;28;20177;-85
2021/07/12 05:37:48;;;;;;;10.55;9.55;;;19.00;87.50;;;;;;5076350;28;20171;-86
2021/07/12 05:40:14;;;;;;;10.88;9.73;;;19.10;87.30;;;;;;5074811;28;20198;-85
2021/07/12 05:42:40;;;;;;;10.70;9.63;;;19.20;86.80;;;;;;5076551;28;20179;-85
2021/07/12 05:45:06;;;;;;;21.08;10.07;;;19.30;86.40;;;;;;5091910;28;20659;-85
2021/07/12 05:47:32;;;;;;;11.60;8.98;;;19.40;86.30;;;;;;5074904;28;20179;-86
2021/07/12 05:49:59;;;;;;;10.88;9.77;;;19.40;85.60;;;;;;5074975;28;20234;-86
2021/07/12 05:52:24;;;;;;;12.07;8.75;;;19.50;85.50;;;;;;5076129;28;20159;-85
2021/07/12 05:54:50;;;;;;;11.07;9.43;;;19.60;85.40;;;;;;5075902;28;20229;-85
2021/07/12 05:57:15;;;;;;;11.80;8.98;;;19.70;85.50;;;;;;5076016;28;20258;-85
2021/07/12 05:59:41;;;;;;;11.38;9.65;;;19.70;85.20;;;;;;5076029;28;20612;-85
2021/07/12 06:02:08;;;;;;;15.52;9.63;;;19.70;84.90;;;;;;5075969;28;20176;-86
2021/07/12 06:04:33;;;;;;;11.60;9.10;;;19.80;85.40;;;;;;5074533;28;20179;-85
2021/07/12 06:06:59;;;;;;;11.93;9.43;;;19.90;84.50;;;;;;5075916;28;20326;-85
2021/07/12 06:09:24;;;;;;;15.05;9.50;;;20.00;84.20;;;;;;5075856;28;20226;-85
2021/07/12 06:11:50;;;;;;;10.48;9.48;;;20.10;84.50;;;;;;5074340;28;20183;-85
2021/07/12 06:14:16;;;;;;;15.38;9.05;;;20.20;84.40;;;;;;5074479;28;20210;-86
2021/07/12 06:16:41;;;;;;;15.48;9.15;;;20.30;83.70;;;;;;5074378;28;20167;-86
2021/07/12 06:19:07;;;;;;;11.77;8.52;;;20.30;83.60;;;;;;5091272;28;20202;-86
2021/07/12 06:21:33;;;;;;;9.68;8.60;;;20.50;82.80;;;;;;5074271;28;20284;-85
2021/07/12 06:23:58;;;;;;;10.07;8.35;;;20.50;82.90;;;;;;5074275;28;20275;-85
2021/07/12 06:26:24;;;;;;;10.55;9.45;;;20.60;83.40;;;;;;5074172;28;20176;-85
2021/07/12 06:28:49;;;;;;;9.40;8.52;;;20.70;82.80;;;;;;5074079;28;20179;-85
2021/07/12 06:31:15;;;;;;;8.63;7.82;;;20.80;81.90;;;;;;5073908;28;20681;-85
2021/07/12 06:33:41;;;;;;;13.27;8.70;;;20.80;81.80;;;;;;5075370;28;20168;-84
2021/07/12 06:36:07;;;;;;;12.82;8.45;;;21.00;82.30;;;;;;5075378;28;20171;-85
2021/07/12 06:38:33;;;;;;;10.60;8.35;;;21.10;81.80;;;;;;5075374;28;20168;-85
2021/07/12 06:40:59;;;;;;;10.60;8.68;;;21.20;80.90;;;;;;5075237;28;20283;-85
2021/07/12 06:43:25;;;;;;;9.82;7.97;;;21.20;81.50;;;;;;5075458;28;20195;-85
2021/07/12 06:45:50;;;;;;;12.93;8.98;;;21.20;80.20;;;;;;5073845;28;20167;-85
2021/07/12 06:48:16;;;;;;;8.40;7.70;;;21.20;80.60;;;;;;5090647;28;20329;-86
2021/07/12 06:50:42;;;;;;;14.90;8.70;;;21.30;79.70;;;;;;5074822;28;20264;-85
2021/07/12 06:53:08;;;;;;;16.80;8.77;;;21.40;79.90;;;;;;5075848;28;20167;-86
2021/07/12 06:55:33;;;;;;;9.32;7.82;;;21.50;79.40;;;;;;5077209;28;20204;-85
2021/07/12 06:58:00;;;;;;;8.88;7.97;;;21.50;78.80;;;;;;5090826;28;20639;-86
2021/07/12 07:00:26;;;;;;;9.85;8.35;;;21.50;78.60;;;;;;5075083;28;20694;-86
2021/07/12 07:02:52;;;;;;;13.80;8.15;;;21.60;79.50;;;;;;5074773;28;20171;-86
2021/07/12 07:05:17;;;;;;;8.65;7.82;;;21.70;77.80;;;;;;5074640;28;20171;-85
2021/07/12 07:07:43;;;;;;;10.07;7.97;;;21.70;77.90;;;;;;5073441;28;20176;-85
2021/07/12 07:10:09;;;;;;;8.93;8.05;;;21.80;77.70;;;;;;5089874;28;20277;-85
2021/07/12 07:12:35;;;;;;;12.13;8.18;;;21.80;77.70;;;;;;5074884;28;20183;-85
2021/07/12 07:15:02;;;;;;;8.73;7.78;;;22.00;78.70;;;;;;5074483;28;20194;-86
2021/07/12 07:17:28;;;;;;;9.05;7.88;;;22.10;77.70;;;;;;5074660;28;20217;-85
2021/07/12 07:19:53;;;;;;;9.20;7.95;;;22.20;78.20;;;;;;5074351;28;20191;-85
2021/07/12 07:22:19;;;;;;;8.55;7.60;;;22.20;78.30;;;;;;5074391;28;20720;-85
2021/07/12 07:24:45;;;;;;;8.55;7.65;;;22.20;77.40;;;;;;5073020;28;20286;-85
2021/07/12 07:27:10;;;;;;;10.30;7.57;;;22.40;76.00;;;;;;5072974;28;20172;-86
2021/07/12 07:29:36;;;;;;;8.75;7.70;;;22.30;76.00;;;;;;5074048;28;20210;-85
2021/07/12 07:32:02;;;;;;;11.85;7.90;;;22.40;75.70;;;;;;5074149;28;20228;-85
2021/07/12 07:34:28;;;;;;;12.93;7.78;;;22.60;77.30;;;;;;5089677;28;20270;-85
2021/07/12 07:36:56;;;;;;;9.93;7.28;;;22.70;76.80;;;;;;5074676;28;20163;-85
2021/07/12 07:39:22;;;;;;;8.38;7.00;;;22.80;74.70;;;;;;5074277;28;20306;-86
2021/07/12 07:41:48;;;;;;;8.40;6.82;;;22.90;74.20;;;;;;5073945;28;20535;-86
2021/07/12 07:44:14;;;;;;;12.43;7.90;;;23.00;74.50;;;;;;5072148;28;20266;-86
2021/07/12 07:46:40;;;;;;;7.57;6.88;;;23.00;74.00;;;;;;5073795;28;20242;-85
2021/07/12 07:49:07;;;;;;;7.88;7.18;;;23.00;73.30;;;;;;5073764;28;20187;-85
2021/07/12 07:51:35;;;;;;;7.70;6.95;;;23.10;73.30;;;;;;5072520;28;20203;-85
2021/07/12 07:54:01;;;;;;;8.00;7.20;;;23.10;74.00;;;;;;5073763;28;20164;-85
2021/07/12 07:56:26;;;;;;;9.20;7.10;;;23.20;74.90;;;;;;5072553;28;20186;-85
2021/07/12 07:58:52;;;;;;;9.98;6.85;;;23.30;72.70;;;;;;5074041;28;20168;-86
2021/07/12 08:01:17;;;;;;;7.18;6.47;;;23.30;73.80;;;;;;5073650;28;20670;-86
2021/07/12 08:03:43;;;;;;;9.02;7.72;;;23.30;73.20;;;;;;5091318;28;20183;-86
2021/07/12 08:06:09;;;;;;;7.38;6.28;;;23.30;71.70;;;;;;5092470;28;20226;-85
2021/07/12 08:08:35;;;;;;;7.55;6.78;;;23.30;72.30;;;;;;5077204;28;20167;-85
2021/07/12 08:11:01;;;;;;;16.63;6.80;;;23.30;73.80;;;;;;5075072;28;20699;-85
2021/07/12 08:13:26;;;;;;;7.40;6.65;;;23.30;73.30;;;;;;5072779;28;20179;-86
2021/07/12 08:15:52;;;;;;;7.55;6.40;;;23.40;73.20;;;;;;5072986;28;20615;-85
2021/07/12 08:18:18;;;;;;;7.50;6.63;;;23.50;72.40;;;;;;5074164;28;20171;-86
2021/07/12 08:20:45;;;;;;;9.05;6.45;;;23.60;73.10;;;;;;5074507;28;20183;-86
2021/07/12 08:23:13;;;;;;;7.20;6.50;;;23.60;71.90;;;;;;5072039;28;20175;-86
2021/07/12 08:25:39;;;;;;;8.05;6.72;;;23.70;73.00;;;;;;5073416;28;20258;-86
2021/07/12 08:28:05;;;;;;;8.20;7.25;;;23.70;72.30;;;;;;5073898;28;20610;-85
2021/07/12 08:30:31;;;;;;;15.70;6.95;;;23.70;71.50;;;;;;5073110;28;20207;-86
2021/07/12 08:32:56;;;;;;;7.40;6.57;;;23.90;72.40;;;;;;5071983;28;20713;-85
2021/07/12 08:35:23;;;;;;;8.13;6.97;;;24.00;71.10;;;;;;5073127;28;20202;-85
2021/07/12 08:37:49;;;;;;;8.38;6.63;;;24.20;71.20;;;;;;5073148;28;20167;-85
2021/07/12 08:40:16;;;;;;;6.32;5.82;;;24.30;71.50;;;;;;5088624;28;20195;-85
2021/07/12 08:42:42;;;;;;;8.57;6.03;;;24.30;70.10;;;;;;5073097;28;20639;-85
2021/07/12 08:45:09;;;;;;;10.38;6.53;;;24.30;69.40;;;;;;5088716;28;20266;-85
2021/07/12 08:47:35;;;;;;;7.80;6.90;;;24.30;70.50;;;;;;5088522;28;20575;-86
2021/07/12 08:50:01;;;;;;;7.97;6.82;;;24.20;68.90;;;;;;5088422;28;20214;-85
2021/07/12 08:52:27;;;;;;;9.52;6.53;;;24.10;69.70;;;;;;5072998;28;20171;-86
2021/07/12 08:54:52;;;;;;;7.70;6.50;;;24.00;69.50;;;;;;5075226;28;20170;-85
2021/07/12 08:57:18;;;;;;;7.47;6.47;;;23.90;70.50;;;;;;5092758;28;20525;-83
2021/07/12 08:59:44;;;;;;;6.80;6.20;;;23.90;71.40;;;;;;5075720;28;20203;-83
2021/07/12 09:02:19;;;;;;;9.77;6.25;;;23.90;70.80;;;;;;5077352;28;20171;-83
2021/07/12 09:04:48;;;;;;;9.68;6.45;;;24.10;71.20;;;;;;5092652;28;20179;-83
2021/07/12 09:07:29;;;;;;;17.02;6.72;;;24.10;70.10;;;;;;5077251;28;20171;-83
2021/07/12 09:10:11;;;;;;;6.93;6.20;;;24.40;70.90;;;;;;5076693;28;20223;-83
2021/07/12 09:12:51;;;;;;;7.18;6.38;;;24.60;69.70;;;;;;5092602;28;20174;-83
2021/07/12 09:15:19;;;;;;;7.00;6.30;;;24.70;69.70;;;;;;5076865;28;20160;-83
2021/07/12 09:17:53;;;;;;;6.57;6.05;;;24.90;67.70;;;;;;5075532;28;20182;-84
2021/07/12 09:20:26;;;;;;;9.13;5.78;;;25.10;68.00;;;;;;5076729;28;20740;-83
2021/07/12 09:22:52;;;;;;;7.78;6.32;;;25.30;67.00;;;;;;5076763;28;20170;-83
2021/07/12 09:25:18;;;;;;;6.50;5.90;;;25.50;68.30;;;;;;5076787;28;20171;-84
2021/07/12 09:27:43;;;;;;;9.02;5.68;;;25.60;68.60;;;;;;5076607;28;20171;-84
2021/07/12 09:30:16;;;;;;;7.95;5.88;;;25.50;66.00;;;;;;5076842;28;20211;-82
2021/07/12 09:32:45;;;;;;;5.95;4.90;;;25.60;68.30;;;;;;5077004;28;20210;-82
2021/07/12 09:35:13;;;;;;;6.32;5.72;;;25.60;65.50;;;;;;5092379;28;20647;-82
2021/07/12 09:37:41;;;;;;;10.05;5.88;;;25.50;65.30;;;;;;5076760;28;20178;-82
2021/07/12 09:40:14;;;;;;;6.38;5.78;;;25.30;66.40;;;;;;5076414;28;20733;-82
2021/07/12 09:42:45;;;;;;;6.22;5.63;;;25.20;68.30;;;;;;5076776;28;20156;-82
2021/07/12 09:45:13;;;;;;;5.97;5.47;;;25.20;65.90;;;;;;5076531;28;20162;-82
2021/07/12 09:47:44;;;;;;;8.48;5.57;;;25.20;67.50;;;;;;5076426;28;20206;-82
2021/07/12 09:50:15;;;;;;;5.82;5.05;;;25.40;66.30;;;;;;5076254;28;20207;-82
2021/07/12 09:52:58;;;;;;;7.45;5.55;;;25.60;64.60;;;;;;5076567;28;20155;-82
2021/07/12 09:55:24;;;;;;;11.32;5.30;;;25.60;66.50;;;;;;5076193;28;20201;-83
2021/07/12 09:58:10;;;;;;;6.90;5.32;;;25.70;66.30;;;;;;5076569;28;20168;-82
2021/07/12 10:00:37;;;;;;;8.40;5.40;;;25.70;64.40;;;;;;5076679;28;20244;-82
2021/07/12 10:03:03;;;;;;;10.48;5.07;;;25.80;63.40;;;;;;5091655;28;20179;-82
2021/07/12 10:05:29;;;;;;;7.70;4.70;;;26.00;63.30;;;;;;5075662;28;20202;-82
2021/07/12 10:07:55;;;;;;;8.43;4.72;;;26.10;63.00;;;;;;5075983;28;20171;-82
2021/07/12 10:10:21;;;;;;;7.50;4.60;;;26.20;63.00;;;;;;5075756;28;20234;-82
2021/07/12 10:12:47;;;;;;;6.25;4.30;;;26.20;61.70;;;;;;5075945;28;20175;-82
2021/07/12 10:15:15;;;;;;;6.20;4.82;;;26.20;61.80;;;;;;5091471;28;20190;-82
2021/07/12 10:17:43;;;;;;;8.10;4.88;;;26.20;62.90;;;;;;5075797;28;20170;-82
2021/07/12 10:20:09;;;;;;;5.53;4.38;;;26.30;62.40;;;;;;5074404;28;20195;-82
2021/07/12 10:22:37;;;;;;;5.53;4.65;;;26.30;63.70;;;;;;5091653;28;20596;-82
2021/07/12 10:25:12;;;;;;;37.22;11.00;;;26.20;63.30;;;;;;5075703;28;20164;-82
2021/07/12 10:27:49;;;;;;;5.05;4.55;;;25.90;63.00;;;;;;5075682;28;20202;-82
2021/07/12 10:30:28;;;;;;;4.97;4.57;;;26.00;63.40;;;;;;5075432;28;20211;-82
2021/07/12 10:32:57;;;;;;;4.88;4.47;;;26.10;62.60;;;;;;5075677;28;20227;-81
2021/07/12 10:35:41;;;;;;;14.85;5.20;;;26.20;64.20;;;;;;5075515;28;20175;-82
2021/07/12 10:38:08;;;;;;;4.30;3.95;;;26.70;63.80;;;;;;5091026;28;20289;-82
2021/07/12 10:40:54;;;;;;;5.00;4.55;;;26.80;64.30;;;;;;5075609;28;20241;-82
2021/07/12 10:43:47;;;;;;;4.55;4.15;;;26.80;58.50;;;;;;5091130;28;20240;-81
2021/07/12 10:46:28;;;;;;;4.28;3.88;;;26.70;58.60;;;;;;5090914;28;20577;-81
2021/07/12 10:48:57;;;;;;;4.82;4.43;;;27.00;62.30;;;;;;5075294;28;20175;-81
2021/07/12 10:51:28;;;;;;;7.97;3.80;;;27.20;58.60;;;;;;5075373;28;20667;-82
2021/07/12 10:54:01;;;;;;;8.23;4.03;;;27.50;57.90;;;;;;5090774;28;20176;-82
2021/07/12 10:56:45;;;;;;;7.95;3.72;;;27.60;56.40;;;;;;5075205;28;20519;-82
2021/07/12 10:59:34;;;;;;;5.57;3.38;;;27.70;56.40;;;;;;5090642;28;20179;-82
2021/07/12 11:02:02;;;;;;;6.05;3.97;;;27.90;54.20;;;;;;5075055;28;20167;-82
2021/07/12 11:04:35;;;;;;;4.57;3.92;;;28.00;57.30;;;;;;5074822;28;20167;-82
2021/07/12 11:07:07;;;;;;;5.20;4.35;;;28.00;56.30;;;;;;5074849;28;20662;-82
2021/07/12 11:12:26;;;;;;;5.35;3.88;;;28.00;57.30;;;;;;5013565;28;20213;-87
2021/07/12 11:15:29;;;;;;;4.28;3.97;;;28.20;56.20;;;;;;5015622;28;20154;-86
2021/07/12 11:18:03;;;;;;;6.57;4.18;;;28.10;56.40;;;;;;4996554;28;20176;-86
2021/07/12 11:20:51;;;;;;;6.80;4.00;;;28.10;57.60;;;;;;5014789;28;20200;-87
2021/07/12 11:23:58;;;;;;;7.80;4.28;;;28.20;56.70;;;;;;4997218;28;20231;-87
2021/07/12 11:26:24;;;;;;;4.40;4.00;;;28.40;56.10;;;;;;5014817;28;20634;-85
2021/07/12 11:29:18;;;;;;;4.68;4.20;;;28.50;55.00;;;;;;5014625;28;20235;-84
2021/07/12 11:31:44;;;;;;;5.82;3.88;;;28.60;56.60;;;;;;5015318;28;20197;-84
2021/07/12 11:34:22;;;;;;;5.78;4.07;;;28.40;53.60;;;;;;4997230;28;20169;-84
2021/07/12 11:37:05;;;;;;;4.28;3.88;;;28.60;55.30;;;;;;5014768;28;20240;-85
2021/07/12 11:39:33;;;;;;;6.47;3.85;;;28.50;53.50;;;;;;4998882;28;20177;-84
2021/07/12 11:42:20;;;;;;;4.78;3.40;;;28.50;55.50;;;;;;4997111;28;20208;-85
2021/07/12 11:44:54;;;;;;;7.78;3.60;;;28.70;52.10;;;;;;5016785;28;20229;-85
2021/07/12 11:47:48;;;;;;;8.10;3.78;;;28.40;52.90;;;;;;5016807;28;20614;-85
2021/07/12 11:50:21;;;;;;;5.95;3.72;;;28.20;54.40;;;;;;5006420;28;20695;-85
2021/07/12 11:52:53;;;;;;;5.85;4.13;;;28.10;56.80;;;;;;5014218;28;20177;-85
2021/07/12 11:55:21;;;;;;;5.97;4.50;;;28.10;55.30;;;;;;5014248;28;20574;-85
2021/07/12 11:57:52;;;;;;;9.68;4.15;;;27.90;55.40;;;;;;4996546;28;20278;-85
2021/07/12 12:00:22;;;;;;;5.90;4.10;;;27.90;58.80;;;;;;4996494;28;20634;-84
2021/07/12 12:02:58;;;;;;;8.52;3.65;;;28.10;56.20;;;;;;5014135;28;20168;-85
2021/07/12 12:05:25;;;;;;;6.22;3.95;;;28.30;54.90;;;;;;4996434;28;20553;-85
2021/07/12 12:07:54;;;;;;;6.95;3.10;;;28.50;54.60;;;;;;4996438;28;20177;-85
2021/07/12 12:10:23;;;;;;;5.70;3.00;;;28.70;53.70;;;;;;5013657;28;20719;-84
2021/07/12 12:12:50;;;;;;;5.18;3.63;;;28.50;52.10;;;;;;5014471;28;20257;-85
2021/07/12 12:15:26;;;;;;;9.07;3.15;;;28.30;54.40;;;;;;5013853;28;20173;-85
2021/07/12 12:18:24;;;;;;;5.88;3.22;;;28.40;55.30;;;;;;4996265;28;20256;-85
2021/07/12 12:20:52;;;;;;;4.40;3.90;;;28.50;55.80;;;;;;5011436;28;20258;-87
2021/07/12 12:23:26;;;;;;;7.68;3.95;;;28.60;54.60;;;;;;4996139;28;20184;-84
2021/07/12 12:25:57;;;;;;;4.47;3.97;;;28.70;54.50;;;;;;5013886;28;20157;-84
2021/07/12 12:28:30;;;;;;;7.95;3.97;;;28.80;53.40;;;;;;5013875;28;20625;-84
2021/07/12 12:31:01;;;;;;;4.32;3.92;;;28.70;54.80;;;;;;4995876;28;20216;-84
2021/07/12 12:33:33;;;;;;;4.35;3.70;;;28.80;52.40;;;;;;5013673;28;20158;-84
2021/07/12 12:36:02;;;;;;;5.70;3.78;;;28.70;54.30;;;;;;4995957;28;20173;-84
2021/07/12 12:38:28;;;;;;;9.55;4.18;;;28.80;54.40;;;;;;5013809;28;20304;-84
2021/07/12 12:41:08;;;;;;;8.55;4.40;;;28.80;53.20;;;;;;5013531;28;20193;-84
2021/07/12 12:43:35;;;;;;;6.43;4.10;;;29.10;53.90;;;;;;5013838;28;20244;-84
2021/07/12 12:46:04;;;;;;;4.05;3.67;;;29.10;52.90;;;;;;4995909;28;20338;-85
2021/07/12 12:48:41;;;;;;;7.22;3.60;;;28.70;54.20;;;;;;5013514;28;20176;-85
2021/07/12 12:51:32;;;;;;;4.65;4.25;;;28.00;53.80;;;;;;4995700;28;20205;-85
2021/07/12 12:54:00;;;;;;;9.30;4.10;;;27.30;53.80;;;;;;4995834;28;20177;-84
2021/07/12 12:56:27;;;;;;;7.55;3.72;;;27.40;56.70;;;;;;4995818;28;20668;-84